Time;durP1;ratioP1;P1;durP2;ratioP2;P2;SDS_P1;SDS_P2;PMS_P1;PMS_P2;Temp;Humidity;BMP_temperature;BMP_pressure;BME280_temperature;BME280_humidity;BME280_pressure;Samples;Min_cycle;Max_cycle;Signal;HPM_P1;HPM_P2
2022/01/25 00:27:02;;;;;;;;;70.25;53.50;;;;;;;;5019636;28;51145;-46
2022/01/25 00:32:55;;;;;;;;;71.25;56.00;;;;;;;;4989831;28;51515;-48
2022/01/25 00:35:54;;;;;;;;;71.50;53.25;;;;;;;;5018968;28;52656;-46
2022/01/25 00:38:39;;;;;;;;;69.00;52.75;;;;;;;;5021652;28;51202;-46
2022/01/25 00:41:25;;;;;;;;;72.50;56.25;;;;;;;;5019802;28;51655;-49
2022/01/25 00:44:13;;;;;;;;;75.25;61.50;;;;;;;;5019042;28;51240;-46
2022/01/25 00:46:57;;;;;;;;;78.50;60.25;;;;;;;;5020183;28;52555;-45
2022/01/25 00:49:44;;;;;;;;;76.75;62.25;;;;;;;;5020719;28;51156;-46
2022/01/25 00:55:31;;;;;;;;;88.00;78.75;;;;;;;;5022388;28;51447;-45
2022/01/25 00:58:15;;;;;;;;;101.00;90.75;;;;;;;;5019256;28;51157;-46
2022/01/25 01:01:03;;;;;;;;;111.00;100.00;;;;;;;;5023225;28;51364;-45
2022/01/25 01:03:50;;;;;;;;;104.00;93.00;;;;;;;;5020072;28;51308;-46
2022/01/25 01:06:36;;;;;;;;;111.00;97.00;;;;;;;;5019420;28;51130;-47
2022/01/25 01:09:22;;;;;;;;;109.00;92.50;;;;;;;;5019124;28;51169;-45
2022/01/25 01:12:13;;;;;;;;;105.00;88.25;;;;;;;;5021104;28;51136;-47
2022/01/25 01:15:24;;;;;;;;;100.00;92.75;;;;;;;;5008102;28;51267;-49
2022/01/25 01:33:56;;;;;;;;;99.00;87.50;;;;;;;;5019515;28;51051;-45
2022/01/25 01:49:02;;;;;;;;;96.00;77.00;;;;;;;;5018258;28;51285;-49
2022/01/25 01:51:49;;;;;;;;;85.75;77.00;;;;;;;;5018223;28;51080;-45
2022/01/25 01:54:34;;;;;;;;;81.50;73.25;;;;;;;;5020443;28;51422;-44
2022/01/25 01:57:19;;;;;;;;;94.00;81.25;;;;;;;;5020780;28;51400;-45
2022/01/25 02:00:08;;;;;;;;;80.25;70.25;;;;;;;;5019690;28;51656;-46
2022/01/25 02:02:54;;;;;;;;;82.75;72.25;;;;;;;;5018773;28;51565;-45
2022/01/25 02:05:39;;;;;;;;;86.75;76.50;;;;;;;;5020933;28;51166;-48
2022/01/25 02:08:24;;;;;;;;;83.25;75.25;;;;;;;;5019936;28;51215;-45
2022/01/25 02:11:11;;;;;;;;;85.25;76.75;;;;;;;;5023128;28;51677;-49
2022/01/25 02:13:58;;;;;;;;;95.50;80.00;;;;;;;;5018447;28;51165;-44
2022/01/25 02:23:03;;;;;;;;;86.50;79.25;;;;;;;;5021204;28;51117;-47
2022/01/25 02:25:49;;;;;;;;;91.75;81.00;;;;;;;;5021447;28;51131;-44
2022/01/25 02:28:36;;;;;;;;;93.00;85.00;;;;;;;;5021243;28;51769;-46
2022/01/25 02:31:23;;;;;;;;;97.00;83.75;;;;;;;;5020257;28;51156;-46
2022/01/25 02:34:13;;;;;;;;;88.25;78.50;;;;;;;;5018626;28;51197;-44
2022/01/25 02:37:02;;;;;;;;;92.50;81.00;;;;;;;;4976757;28;51176;-48
2022/01/25 02:39:59;;;;;;;;;97.25;79.75;;;;;;;;5016480;28;51196;-46
2022/01/25 02:42:43;;;;;;;;;91.25;80.00;;;;;;;;5018741;28;51157;-45
2022/01/25 02:45:34;;;;;;;;;91.75;78.00;;;;;;;;5008869;28;51544;-48
2022/01/25 02:48:31;;;;;;;;;79.25;71.25;;;;;;;;5023934;28;51405;-47
2022/01/25 02:51:16;;;;;;;;;88.75;77.75;;;;;;;;5026423;28;51164;-47
2022/01/25 02:54:02;;;;;;;;;88.00;78.00;;;;;;;;5024238;28;51212;-46
2022/01/25 02:56:47;;;;;;;;;87.75;78.25;;;;;;;;5012455;28;51087;-45
2022/01/25 02:59:44;;;;;;;;;81.25;73.00;;;;;;;;5022264;28;51195;-44
2022/01/25 03:02:39;;;;;;;;;81.75;74.25;;;;;;;;5021521;28;51255;-46
2022/01/25 03:05:25;;;;;;;;;93.00;77.75;;;;;;;;5022098;28;51138;-45
2022/01/25 03:08:23;;;;;;;;;79.00;72.25;;;;;;;;5022576;28;51249;-47
2022/01/25 03:11:29;;;;;;;;;83.00;78.50;;;;;;;;5020112;28;51062;-45
2022/01/25 03:14:14;;;;;;;;;95.50;78.00;;;;;;;;5021668;28;51162;-47
2022/01/25 03:17:13;;;;;;;;;82.50;75.00;;;;;;;;5012081;28;51082;-47
2022/01/25 03:20:33;;;;;;;;;87.00;75.00;;;;;;;;5015528;28;51272;-44
2022/01/25 03:23:22;;;;;;;;;79.00;71.75;;;;;;;;5015600;28;51248;-46
2022/01/25 03:26:06;;;;;;;;;76.50;69.00;;;;;;;;5016881;28;51998;-45
2022/01/25 03:28:52;;;;;;;;;84.00;70.50;;;;;;;;5020193;28;51090;-47
2022/01/25 03:31:42;;;;;;;;;87.25;76.00;;;;;;;;5018353;28;51123;-46
2022/01/25 03:34:27;;;;;;;;;81.75;70.75;;;;;;;;5020044;28;51039;-45
2022/01/25 03:37:11;;;;;;;;;88.50;77.50;;;;;;;;5017106;28;51925;-45
2022/01/25 03:39:59;;;;;;;;;93.75;82.50;;;;;;;;5021691;28;51202;-44
2022/01/25 03:43:06;;;;;;;;;94.00;78.50;;;;;;;;5019690;28;51553;-47
2022/01/25 03:46:04;;;;;;;;;95.75;82.75;;;;;;;;5023717;28;51030;-46
2022/01/25 03:51:57;;;;;;;;;92.00;73.75;;;;;;;;5019402;28;51180;-44
2022/01/25 03:54:48;;;;;;;;;92.00;79.25;;;;;;;;5022992;28;51245;-48
2022/01/25 03:57:47;;;;;;;;;92.25;76.50;;;;;;;;5026148;28;51167;-47
2022/01/25 04:00:54;;;;;;;;;88.75;76.50;;;;;;;;5022027;28;51082;-47
2022/01/25 04:04:06;;;;;;;;;91.50;79.50;;;;;;;;5020597;28;51172;-45
2022/01/25 04:06:58;;;;;;;;;86.75;76.25;;;;;;;;5024126;28;51271;-45
2022/01/25 04:09:47;;;;;;;;;86.00;74.75;;;;;;;;5021772;28;51914;-46
2022/01/25 04:12:34;;;;;;;;;83.75;74.75;;;;;;;;5021353;28;51074;-47
2022/01/25 04:15:31;;;;;;;;;87.25;79.75;;;;;;;;5006163;28;51241;-52
2022/01/25 04:18:26;;;;;;;;;94.25;80.25;;;;;;;;5015270;28;51624;-45
2022/01/25 04:21:26;;;;;;;;;92.75;80.25;;;;;;;;5019546;28;51061;-46
2022/01/25 04:25:17;;;;;;;;;98.00;84.75;;;;;;;;5020794;28;51145;-47
2022/01/25 04:27:43;;;;;;;;;97.25;79.75;;;;;;;;5017069;28;51794;-46
2022/01/25 04:30:29;;;;;;;;;91.75;81.25;;;;;;;;5023098;28;51550;-48
2022/01/25 04:33:38;;;;;;;;;98.00;82.25;;;;;;;;5022169;28;51166;-47
2022/01/25 04:36:53;;;;;;;;;99.00;85.00;;;;;;;;5018168;28;51666;-46
2022/01/25 04:52:23;;;;;;;;;100.75;85.00;;;;;;;;4991822;28;51007;-48
2022/01/25 04:55:20;;;;;;;;;102.75;90.50;;;;;;;;5021226;28;51013;-45
2022/01/25 04:58:15;;;;;;;;;100.75;88.75;;;;;;;;5019668;28;51364;-45
2022/01/25 05:01:12;;;;;;;;;111.25;94.25;;;;;;;;5018211;28;51228;-48
2022/01/25 05:04:27;;;;;;;;;99.75;86.50;;;;;;;;5024276;28;51170;-44
2022/01/25 05:07:40;;;;;;;;;104.00;86.25;;;;;;;;5019012;28;51370;-47
2022/01/25 05:10:28;;;;;;;;;104.75;87.00;;;;;;;;5018942;28;51193;-45
2022/01/25 05:16:26;;;;;;;;;104.00;92.25;;;;;;;;5019590;28;51516;-45
2022/01/25 05:22:04;;;;;;;;;105.50;91.50;;;;;;;;5018965;28;51057;-48
2022/01/25 05:22:31;;;;;;;;;104.25;94.25;;;;;;;;5022795;28;52039;-48
2022/01/25 05:25:53;;;;;;;;;105.25;92.75;;;;;;;;5016363;28;51193;-45
2022/01/25 05:28:41;;;;;;;;;99.00;83.00;;;;;;;;5018245;28;51169;-46
2022/01/25 05:31:28;;;;;;;;;99.00;88.25;;;;;;;;5021004;28;51077;-45
2022/01/25 05:34:13;;;;;;;;;113.00;99.00;;;;;;;;5019382;28;51127;-49
2022/01/25 05:37:03;;;;;;;;;102.00;85.00;;;;;;;;5021130;28;51447;-45
2022/01/25 05:39:54;;;;;;;;;118.00;97.00;;;;;;;;5019638;28;51067;-45
2022/01/25 05:43:58;;;;;;;;;106.00;96.25;;;;;;;;5018320;28;51543;-46
2022/01/25 05:46:02;;;;;;;;;104.00;91.50;;;;;;;;5021963;28;51343;-48
2022/01/25 05:48:47;;;;;;;;;106.50;92.25;;;;;;;;5020325;28;51410;-45
2022/01/25 05:51:34;;;;;;;;;101.75;90.75;;;;;;;;5018323;28;51540;-46
2022/01/25 05:54:22;;;;;;;;;102.25;90.25;;;;;;;;5021298;28;51458;-46
2022/01/25 05:57:12;;;;;;;;;102.50;85.50;;;;;;;;5020195;28;51101;-45
2022/01/25 06:00:07;;;;;;;;;103.50;92.25;;;;;;;;5019768;28;51093;-48
2022/01/25 06:02:55;;;;;;;;;104.25;91.00;;;;;;;;5018752;28;51393;-45
2022/01/25 06:05:42;;;;;;;;;112.25;98.00;;;;;;;;5022057;28;51216;-46
2022/01/25 06:08:37;;;;;;;;;106.00;94.50;;;;;;;;5018277;28;51058;-46
2022/01/25 06:11:37;;;;;;;;;108.50;95.00;;;;;;;;5017150;28;51129;-47
2022/01/25 06:14:24;;;;;;;;;115.00;106.25;;;;;;;;5018734;28;51129;-47
2022/01/25 06:17:09;;;;;;;;;120.00;102.25;;;;;;;;5019411;28;51177;-48
2022/01/25 06:20:00;;;;;;;;;108.50;92.50;;;;;;;;5019957;28;51748;-46
2022/01/25 06:22:44;;;;;;;;;110.75;100.00;;;;;;;;5022458;28;51160;-47
2022/01/25 06:25:29;;;;;;;;;119.00;106.25;;;;;;;;5009978;28;51223;-47
2022/01/25 06:28:13;;;;;;;;;124.00;105.25;;;;;;;;5023648;28;51200;-48
2022/01/25 06:31:01;;;;;;;;;133.25;114.25;;;;;;;;5023807;28;51102;-47
2022/01/25 06:33:46;;;;;;;;;126.75;114.25;;;;;;;;5023319;28;51356;-48
2022/01/25 06:36:42;;;;;;;;;130.00;111.25;;;;;;;;5021961;28;51050;-47
2022/01/25 06:39:45;;;;;;;;;123.75;108.75;;;;;;;;5023308;28;51148;-47
2022/01/25 06:42:31;;;;;;;;;154.00;131.50;;;;;;;;5023352;28;51209;-47
2022/01/25 06:45:18;;;;;;;;;141.25;124.00;;;;;;;;5024736;28;51559;-48
2022/01/25 06:48:04;;;;;;;;;148.50;131.50;;;;;;;;5023572;28;51160;-47
2022/01/25 06:50:48;;;;;;;;;134.00;118.00;;;;;;;;5025621;28;51082;-49
2022/01/25 06:53:34;;;;;;;;;129.00;109.50;;;;;;;;5023023;28;51545;-47
2022/01/25 06:56:19;;;;;;;;;137.50;119.25;;;;;;;;5024321;28;51137;-50
2022/01/25 06:59:15;;;;;;;;;136.25;112.75;;;;;;;;5022339;28;51229;-49
2022/01/25 07:02:01;;;;;;;;;128.75;109.75;;;;;;;;5022132;28;51119;-47
2022/01/25 07:04:45;;;;;;;;;128.50;111.75;;;;;;;;5023123;28;51181;-51
2022/01/25 07:07:31;;;;;;;;;136.00;118.00;;;;;;;;5025966;28;51585;-48
2022/01/25 07:10:17;;;;;;;;;137.00;120.75;;;;;;;;5022936;28;51122;-47
2022/01/25 07:13:03;;;;;;;;;131.75;113.75;;;;;;;;5026273;28;51241;-47
2022/01/25 07:15:53;;;;;;;;;143.75;128.50;;;;;;;;5023037;28;51097;-47
2022/01/25 07:18:47;;;;;;;;;138.25;123.75;;;;;;;;5023210;28;51479;-47
2022/01/25 07:21:37;;;;;;;;;143.00;121.50;;;;;;;;5024841;28;51267;-50
2022/01/25 07:24:34;;;;;;;;;130.75;117.25;;;;;;;;5020368;28;51373;-49
2022/01/25 07:27:21;;;;;;;;;121.25;106.25;;;;;;;;5018942;28;51201;-47
2022/01/25 07:30:23;;;;;;;;;130.50;109.25;;;;;;;;5021559;28;51172;-50
2022/01/25 07:33:08;;;;;;;;;129.00;116.50;;;;;;;;5000866;28;52043;-49
2022/01/25 07:35:59;;;;;;;;;130.75;120.00;;;;;;;;5022693;28;51193;-49
2022/01/25 07:38:47;;;;;;;;;142.00;119.00;;;;;;;;5020460;28;51201;-47
2022/01/25 07:41:38;;;;;;;;;122.75;109.00;;;;;;;;5021300;28;51169;-53
2022/01/25 07:44:47;;;;;;;;;115.75;100.50;;;;;;;;5020993;28;51174;-47
2022/01/25 07:47:36;;;;;;;;;117.75;100.25;;;;;;;;5021180;28;51154;-48
2022/01/25 07:50:41;;;;;;;;;110.75;96.00;;;;;;;;5020711;28;51322;-46
2022/01/25 07:53:31;;;;;;;;;110.75;95.25;;;;;;;;5022937;28;51618;-48
2022/01/25 07:56:29;;;;;;;;;113.50;99.50;;;;;;;;5013903;28;51181;-47
2022/01/25 07:59:36;;;;;;;;;108.00;95.50;;;;;;;;5021447;28;51164;-47
2022/01/25 08:02:23;;;;;;;;;108.00;90.75;;;;;;;;5025016;28;51517;-48
2022/01/25 08:05:09;;;;;;;;;106.75;96.00;;;;;;;;5021831;28;51103;-48
2022/01/25 08:07:55;;;;;;;;;108.00;99.50;;;;;;;;5017559;28;51087;-47
2022/01/25 08:10:40;;;;;;;;;108.50;92.75;;;;;;;;5020456;28;51268;-47
2022/01/25 08:13:31;;;;;;;;;119.25;101.25;;;;;;;;5022647;28;51072;-48
2022/01/25 08:16:28;;;;;;;;;120.50;104.75;;;;;;;;5020564;28;51173;-48
2022/01/25 08:19:12;;;;;;;;;109.25;96.50;;;;;;;;5025111;28;51331;-48
2022/01/25 08:22:00;;;;;;;;;107.00;92.00;;;;;;;;5023229;28;51097;-46
2022/01/25 08:24:56;;;;;;;;;107.75;88.75;;;;;;;;5023117;28;51619;-46
2022/01/25 08:27:40;;;;;;;;;113.25;104.25;;;;;;;;5024370;28;51119;-47
2022/01/25 08:30:24;;;;;;;;;108.75;95.25;;;;;;;;5027673;28;51235;-50
2022/01/25 08:33:11;;;;;;;;;112.50;104.25;;;;;;;;5022664;28;51095;-46
2022/01/25 08:36:01;;;;;;;;;112.75;99.25;;;;;;;;5026136;28;51193;-47
2022/01/25 08:38:46;;;;;;;;;108.25;93.75;;;;;;;;5023203;28;51246;-45
2022/01/25 08:41:30;;;;;;;;;105.25;94.75;;;;;;;;5009211;28;51498;-47
2022/01/25 08:44:25;;;;;;;;;106.50;88.50;;;;;;;;5018965;28;51348;-48
2022/01/25 08:47:11;;;;;;;;;113.75;102.00;;;;;;;;5019448;28;51074;-47
2022/01/25 08:49:55;;;;;;;;;112.50;104.75;;;;;;;;5017987;28;51416;-48
2022/01/25 08:52:41;;;;;;;;;112.25;101.75;;;;;;;;5018006;28;51249;-47
2022/01/25 08:55:26;;;;;;;;;110.00;99.75;;;;;;;;5013528;28;51170;-45
2022/01/25 08:58:14;;;;;;;;;106.25;95.75;;;;;;;;5022028;28;51033;-46
2022/01/25 09:01:18;;;;;;;;;103.00;94.50;;;;;;;;5018217;28;51515;-46
2022/01/25 09:04:09;;;;;;;;;108.75;100.25;;;;;;;;5018347;28;51056;-50
2022/01/25 09:07:09;;;;;;;;;113.00;104.50;;;;;;;;5019529;28;51552;-46
2022/01/25 09:09:54;;;;;;;;;108.25;94.75;;;;;;;;5023712;28;51166;-46
2022/01/25 09:12:40;;;;;;;;;102.25;95.00;;;;;;;;5017495;28;51134;-44
2022/01/25 09:15:36;;;;;;;;;105.75;100.00;;;;;;;;5018415;28;51178;-44
2022/01/25 09:18:20;;;;;;;;;100.25;88.50;;;;;;;;5020339;28;51163;-46
2022/01/25 09:21:11;;;;;;;;;105.50;98.75;;;;;;;;5018267;28;51176;-46
2022/01/25 09:24:16;;;;;;;;;106.75;95.25;;;;;;;;5019765;28;51045;-45
2022/01/25 09:27:04;;;;;;;;;100.25;92.00;;;;;;;;5018791;28;51118;-48
2022/01/25 09:29:50;;;;;;;;;109.50;102.00;;;;;;;;5017675;28;51519;-47
2022/01/25 09:32:35;;;;;;;;;93.50;89.50;;;;;;;;5019087;28;51333;-46
2022/01/25 09:35:19;;;;;;;;;106.25;91.00;;;;;;;;5016466;28;51198;-45
2022/01/25 09:38:07;;;;;;;;;112.25;103.75;;;;;;;;5017385;28;51206;-49
2022/01/25 09:40:56;;;;;;;;;108.00;98.00;;;;;;;;5002146;28;51843;-48
2022/01/25 09:43:41;;;;;;;;;117.75;106.00;;;;;;;;5026335;28;51482;-48
2022/01/25 09:46:26;;;;;;;;;107.75;98.50;;;;;;;;5019122;28;51144;-46
2022/01/25 09:49:16;;;;;;;;;101.50;93.75;;;;;;;;5019201;28;50999;-43
2022/01/25 09:52:04;;;;;;;;;101.50;94.50;;;;;;;;5010222;28;51043;-50
2022/01/25 09:55:03;;;;;;;;;98.75;91.75;;;;;;;;5026706;28;51185;-48
2022/01/25 09:57:59;;;;;;;;;100.25;94.75;;;;;;;;5010085;28;51324;-45
2022/01/25 10:00:46;;;;;;;;;112.50;105.75;;;;;;;;5024724;28;51328;-45
2022/01/25 10:03:52;;;;;;;;;106.25;97.25;;;;;;;;5031571;28;51173;-47
2022/01/25 10:06:49;;;;;;;;;110.75;101.50;;;;;;;;5023502;28;51397;-48
2022/01/25 10:09:48;;;;;;;;;110.25;101.50;;;;;;;;5027652;28;51338;-43
2022/01/25 10:12:34;;;;;;;;;111.50;106.50;;;;;;;;5014678;28;51180;-44
2022/01/25 10:15:19;;;;;;;;;94.00;85.50;;;;;;;;5025165;28;51224;-50
2022/01/25 10:18:11;;;;;;;;;98.50;92.75;;;;;;;;5024938;28;51041;-43
2022/01/25 10:21:07;;;;;;;;;92.25;86.50;;;;;;;;5030288;28;51573;-48
2022/01/25 10:24:06;;;;;;;;;98.50;92.75;;;;;;;;5024181;28;51335;-46
2022/01/25 10:26:51;;;;;;;;;101.75;91.75;;;;;;;;5021247;28;51273;-46
2022/01/25 10:29:42;;;;;;;;;107.00;97.50;;;;;;;;5021790;28;51219;-47
2022/01/25 10:32:55;;;;;;;;;96.25;86.75;;;;;;;;5021761;28;51274;-44
2022/01/25 10:36:19;;;;;;;;;114.00;104.25;;;;;;;;5024716;28;51232;-45
2022/01/25 10:39:10;;;;;;;;;132.25;119.75;;;;;;;;5029474;28;51271;-46
2022/01/25 10:42:22;;;;;;;;;97.00;90.00;;;;;;;;5024448;28;51245;-45
2022/01/25 10:45:25;;;;;;;;;111.75;103.00;;;;;;;;5026186;28;51600;-51
2022/01/25 10:48:32;;;;;;;;;93.00;82.50;;;;;;;;5030138;28;51537;-48
2022/01/25 10:51:37;;;;;;;;;98.00;89.25;;;;;;;;5027402;28;51192;-43
2022/01/25 10:54:24;;;;;;;;;104.00;93.75;;;;;;;;5023541;28;51179;-42
2022/01/25 10:57:19;;;;;;;;;109.50;100.00;;;;;;;;5024307;28;51090;-45
2022/01/25 11:00:07;;;;;;;;;92.00;88.75;;;;;;;;5024829;28;51212;-46
2022/01/25 11:03:07;;;;;;;;;102.25;93.25;;;;;;;;5028889;28;51423;-44
2022/01/25 11:05:52;;;;;;;;;90.50;82.25;;;;;;;;5020885;28;51196;-48
2022/01/25 11:08:48;;;;;;;;;80.75;73.75;;;;;;;;5021578;28;51142;-48
2022/01/25 11:11:38;;;;;;;;;90.00;85.25;;;;;;;;5020701;28;51239;-46
2022/01/25 11:17:29;;;;;;;;;109.00;98.00;;;;;;;;5020500;28;51583;-46
2022/01/25 11:20:28;;;;;;;;;100.50;86.00;;;;;;;;5022503;28;51580;-49
2022/01/25 11:23:15;;;;;;;;;92.75;83.25;;;;;;;;5019163;28;51130;-48
2022/01/25 11:26:12;;;;;;;;;96.75;83.25;;;;;;;;5020789;28;51518;-47
2022/01/25 11:29:05;;;;;;;;;87.00;79.75;;;;;;;;5021112;28;51451;-49
2022/01/25 11:32:10;;;;;;;;;85.75;74.75;;;;;;;;5021297;28;51173;-43
2022/01/25 11:34:58;;;;;;;;;91.75;83.00;;;;;;;;5022331;28;51275;-44
2022/01/25 11:37:46;;;;;;;;;91.50;83.50;;;;;;;;5022827;28;51135;-46
2022/01/25 11:40:35;;;;;;;;;81.75;74.00;;;;;;;;5009324;28;51548;-46
2022/01/25 11:43:19;;;;;;;;;77.75;72.25;;;;;;;;5020526;28;51632;-47
2022/01/25 11:46:06;;;;;;;;;78.00;70.50;;;;;;;;5019814;28;51486;-45
2022/01/25 11:48:58;;;;;;;;;79.75;71.00;;;;;;;;5004837;28;51476;-47
2022/01/25 11:51:43;;;;;;;;;78.25;69.75;;;;;;;;5019301;28;51478;-47
2022/01/25 11:54:28;;;;;;;;;75.50;63.00;;;;;;;;5020533;28;51582;-45
2022/01/25 11:57:21;;;;;;;;;75.25;66.75;;;;;;;;5022273;28;51157;-45
2022/01/25 12:00:05;;;;;;;;;73.25;63.00;;;;;;;;5019599;28;51481;-46
2022/01/25 12:02:53;;;;;;;;;80.00;71.50;;;;;;;;5018646;28;51332;-50
2022/01/25 12:05:52;;;;;;;;;84.00;74.25;;;;;;;;5004590;28;51258;-48
2022/01/25 12:12:06;;;;;;;;;67.50;53.00;;;;;;;;5010277;28;51240;-46
2022/01/25 12:14:56;;;;;;;;;70.75;57.50;;;;;;;;5021859;28;51155;-47
2022/01/25 12:18:13;;;;;;;;;74.75;62.00;;;;;;;;5017606;28;51336;-46
2022/01/25 12:21:05;;;;;;;;;70.25;58.25;;;;;;;;5019251;28;51921;-48
2022/01/25 12:24:11;;;;;;;;;64.75;52.25;;;;;;;;5018704;28;51223;-47
2022/01/25 12:30:23;;;;;;;;;67.25;52.75;;;;;;;;5018254;28;51244;-46
2022/01/25 12:33:26;;;;;;;;;70.75;57.00;;;;;;;;5019454;28;51586;-47
2022/01/25 12:36:11;;;;;;;;;69.25;56.75;;;;;;;;5021107;28;51739;-48
2022/01/25 12:39:26;;;;;;;;;68.00;57.00;;;;;;;;5019178;28;51131;-46
2022/01/25 12:42:32;;;;;;;;;74.00;60.00;;;;;;;;5016809;28;51136;-45
2022/01/25 12:45:21;;;;;;;;;66.25;53.00;;;;;;;;5019165;28;51167;-46
2022/01/25 12:48:17;;;;;;;;;67.25;54.00;;;;;;;;5019497;28;51168;-48
2022/01/25 12:51:04;;;;;;;;;71.25;59.25;;;;;;;;5018016;28;51042;-46
2022/01/25 12:53:54;;;;;;;;;75.75;63.50;;;;;;;;5018525;28;51236;-47
2022/01/25 12:56:47;;;;;;;;;70.75;55.50;;;;;;;;5016874;28;51201;-47
2022/01/25 12:59:34;;;;;;;;;70.75;55.25;;;;;;;;5018334;28;51573;-48
2022/01/25 13:02:33;;;;;;;;;70.25;57.75;;;;;;;;5017826;28;51417;-46
2022/01/25 13:05:35;;;;;;;;;69.00;55.25;;;;;;;;5020258;28;51226;-47
2022/01/25 13:08:22;;;;;;;;;69.00;54.75;;;;;;;;5018766;28;51181;-48
2022/01/25 13:11:29;;;;;;;;;65.75;52.75;;;;;;;;5018682;28;51501;-45
2022/01/25 13:17:22;;;;;;;;;65.00;49.25;;;;;;;;5018569;28;51253;-46
2022/01/25 13:20:07;;;;;;;;;65.00;49.25;;;;;;;;5011272;28;51383;-46
2022/01/25 13:22:57;;;;;;;;;65.75;49.75;;;;;;;;5020013;28;52105;-46
2022/01/25 13:31:31;;;;;;;;;55.25;45.25;;;;;;;;5019220;28;51212;-45
2022/01/25 13:34:22;;;;;;;;;58.50;46.25;;;;;;;;5017986;28;51021;-47
2022/01/25 13:37:21;;;;;;;;;57.50;44.75;;;;;;;;5019540;28;51149;-45
2022/01/25 13:40:07;;;;;;;;;56.25;43.25;;;;;;;;4999216;28;51825;-46
2022/01/25 13:43:31;;;;;;;;;53.00;41.50;;;;;;;;5016016;28;51517;-45
2022/01/25 13:46:17;;;;;;;;;62.75;47.75;;;;;;;;5019690;28;51434;-47
2022/01/25 13:49:13;;;;;;;;;62.00;48.75;;;;;;;;5016636;28;51138;-46
2022/01/25 13:51:58;;;;;;;;;61.25;48.50;;;;;;;;5017803;28;51281;-45
2022/01/25 13:54:45;;;;;;;;;60.00;46.00;;;;;;;;5019410;28;51745;-48
2022/01/25 13:57:30;;;;;;;;;60.25;48.00;;;;;;;;5018430;28;51150;-46
2022/01/25 14:00:15;;;;;;;;;61.75;49.75;;;;;;;;5003405;28;51226;-48
2022/01/25 14:03:00;;;;;;;;;59.00;47.25;;;;;;;;5020421;28;51133;-46
2022/01/25 14:05:55;;;;;;;;;60.50;46.75;;;;;;;;5020421;28;52545;-47
2022/01/25 14:08:42;;;;;;;;;63.00;50.00;;;;;;;;5016555;28;51042;-47
2022/01/25 14:11:36;;;;;;;;;55.50;44.75;;;;;;;;5016778;28;51198;-47
2022/01/25 14:23:55;;;;;;;;;92.50;77.75;;;;;;;;5017850;28;51246;-45
2022/01/25 14:26:41;;;;;;;;;83.75;74.00;;;;;;;;5003421;28;51179;-44
2022/01/25 14:29:40;;;;;;;;;93.25;81.75;;;;;;;;5018621;28;51146;-46
2022/01/25 14:32:31;;;;;;;;;90.25;82.50;;;;;;;;5020140;28;51379;-47
2022/01/25 14:35:17;;;;;;;;;91.50;84.00;;;;;;;;4987502;28;51182;-46
2022/01/25 14:38:01;;;;;;;;;88.25;82.25;;;;;;;;5021741;28;51035;-45
2022/01/25 14:41:08;;;;;;;;;105.50;92.00;;;;;;;;5019196;28;51410;-45
2022/01/25 14:44:22;;;;;;;;;105.50;92.50;;;;;;;;5021598;28;51120;-46
2022/01/25 14:47:12;;;;;;;;;102.75;94.75;;;;;;;;5013755;28;51502;-46
2022/01/25 14:50:00;;;;;;;;;97.25;88.00;;;;;;;;5021140;28;52701;-46
2022/01/25 14:53:05;;;;;;;;;101.00;89.50;;;;;;;;5019495;28;51148;-52
2022/01/25 14:56:16;;;;;;;;;101.50;93.25;;;;;;;;5019193;28;51399;-47
2022/01/25 15:01:54;;;;;;;;;102.25;86.00;;;;;;;;5020158;28;51153;-45
2022/01/25 15:04:50;;;;;;;;;101.50;87.25;;;;;;;;5020007;28;51291;-46
2022/01/25 15:07:40;;;;;;;;;79.25;75.75;;;;;;;;5003488;28;51959;-45
2022/01/25 15:10:31;;;;;;;;;97.00;89.00;;;;;;;;5019980;28;51406;-45
2022/01/25 15:13:24;;;;;;;;;84.50;79.25;;;;;;;;5019681;28;51311;-46
2022/01/25 15:16:19;;;;;;;;;80.75;79.75;;;;;;;;5020957;28;51108;-48
2022/01/25 15:19:06;;;;;;;;;103.75;88.00;;;;;;;;5019400;28;51196;-47
2022/01/25 15:22:12;;;;;;;;;94.50;83.00;;;;;;;;5021285;28;51162;-48
2022/01/25 15:24:59;;;;;;;;;100.75;87.00;;;;;;;;5018693;28;51343;-45
2022/01/25 15:27:45;;;;;;;;;101.00;86.75;;;;;;;;5018158;28;51209;-47
2022/01/25 15:30:29;;;;;;;;;97.25;86.75;;;;;;;;5017242;28;51152;-48
2022/01/25 15:33:16;;;;;;;;;101.25;91.75;;;;;;;;5018473;28;51855;-50
2022/01/25 15:36:06;;;;;;;;;100.75;90.75;;;;;;;;5018997;28;52275;-49
2022/01/25 15:39:01;;;;;;;;;96.50;88.50;;;;;;;;5018331;28;51146;-48
2022/01/25 15:42:04;;;;;;;;;97.75;91.75;;;;;;;;5022405;28;51106;-45
2022/01/25 15:44:52;;;;;;;;;91.50;79.50;;;;;;;;5020637;28;51542;-49
2022/01/25 15:48:00;;;;;;;;;97.75;85.50;;;;;;;;5018918;28;51252;-48
2022/01/25 15:50:44;;;;;;;;;100.75;87.25;;;;;;;;5019989;28;51203;-48
2022/01/25 15:53:28;;;;;;;;;89.50;83.50;;;;;;;;5021732;28;51596;-45
2022/01/25 15:56:14;;;;;;;;;96.50;90.50;;;;;;;;5023689;28;51098;-47
2022/01/25 15:58:59;;;;;;;;;97.25;87.50;;;;;;;;5020943;28;51354;-46
2022/01/25 16:01:47;;;;;;;;;100.75;89.25;;;;;;;;5024210;28;51123;-45
2022/01/25 16:04:31;;;;;;;;;85.00;79.25;;;;;;;;5021052;28;51146;-45
2022/01/25 16:07:16;;;;;;;;;107.25;93.25;;;;;;;;5023295;28;51364;-47
2022/01/25 16:10:00;;;;;;;;;105.50;90.75;;;;;;;;5021281;28;51495;-44
2022/01/25 16:12:44;;;;;;;;;104.00;87.00;;;;;;;;5017186;28;51105;-47
2022/01/25 16:15:29;;;;;;;;;96.75;88.50;;;;;;;;5020215;28;51108;-48
2022/01/25 16:18:13;;;;;;;;;99.75;89.50;;;;;;;;5019973;28;51301;-46
2022/01/25 16:20:58;;;;;;;;;78.25;67.25;;;;;;;;5019997;28;51097;-49
2022/01/25 16:23:42;;;;;;;;;99.75;87.00;;;;;;;;5020061;28;51246;-45
2022/01/25 16:26:27;;;;;;;;;98.00;88.75;;;;;;;;5019639;28;51367;-46
2022/01/25 16:29:11;;;;;;;;;100.25;87.00;;;;;;;;5019934;28;51322;-46
2022/01/25 16:31:58;;;;;;;;;91.00;82.75;;;;;;;;5020102;28;51137;-47
2022/01/25 16:34:42;;;;;;;;;88.00;75.50;;;;;;;;5013495;28;51525;-46
2022/01/25 16:37:27;;;;;;;;;95.00;82.75;;;;;;;;5018554;28;51532;-48
2022/01/25 16:40:12;;;;;;;;;94.50;80.25;;;;;;;;5004213;28;51157;-46
2022/01/25 16:42:57;;;;;;;;;95.00;84.75;;;;;;;;5017548;28;51160;-46
2022/01/25 16:45:41;;;;;;;;;103.25;92.00;;;;;;;;5019220;28;51061;-47
2022/01/25 16:48:26;;;;;;;;;101.75;84.75;;;;;;;;5018995;28;51194;-45
2022/01/25 16:51:11;;;;;;;;;94.25;87.25;;;;;;;;5019219;28;51161;-47
2022/01/25 16:53:55;;;;;;;;;87.50;80.75;;;;;;;;5019415;28;51237;-45
2022/01/25 16:56:40;;;;;;;;;82.00;75.25;;;;;;;;5022888;28;51078;-46
2022/01/25 16:59:24;;;;;;;;;102.75;83.75;;;;;;;;5026343;28;51472;-45
2022/01/25 17:02:12;;;;;;;;;98.25;82.25;;;;;;;;5020064;28;51124;-48
2022/01/25 17:04:55;;;;;;;;;87.75;77.00;;;;;;;;5019012;28;51462;-46
2022/01/25 17:07:40;;;;;;;;;88.00;81.75;;;;;;;;5018629;28;51140;-47
2022/01/25 17:10:25;;;;;;;;;88.75;79.50;;;;;;;;5019646;28;51105;-45
2022/01/25 17:13:09;;;;;;;;;91.00;84.25;;;;;;;;5021208;28;51564;-44
2022/01/25 17:15:54;;;;;;;;;95.50;83.50;;;;;;;;5019668;28;51504;-45
2022/01/25 17:18:39;;;;;;;;;94.25;86.50;;;;;;;;5018792;28;51409;-45
2022/01/25 17:21:23;;;;;;;;;95.00;82.00;;;;;;;;5019078;28;51218;-45
2022/01/25 17:24:08;;;;;;;;;86.00;78.25;;;;;;;;5018086;28;51225;-48
2022/01/25 17:26:52;;;;;;;;;95.75;84.00;;;;;;;;5018928;28;51050;-45
2022/01/25 17:29:36;;;;;;;;;89.75;80.50;;;;;;;;5013595;28;51664;-48
2022/01/25 17:32:21;;;;;;;;;91.00;83.00;;;;;;;;5017389;28;51090;-47
2022/01/25 17:35:06;;;;;;;;;94.50;84.25;;;;;;;;5014615;28;51398;-47
2022/01/25 17:37:51;;;;;;;;;95.50;82.50;;;;;;;;5016784;28;51524;-46
2022/01/25 17:40:36;;;;;;;;;91.50;79.00;;;;;;;;5017498;28;51149;-46
2022/01/25 17:43:21;;;;;;;;;92.00;78.75;;;;;;;;5002158;28;51100;-47
2022/01/25 17:46:05;;;;;;;;;90.50;78.50;;;;;;;;5004478;28;51351;-46
2022/01/25 17:48:51;;;;;;;;;76.00;64.75;;;;;;;;5016037;28;51474;-45
2022/01/25 17:51:36;;;;;;;;;88.00;76.00;;;;;;;;5015389;28;51318;-48
2022/01/25 17:54:20;;;;;;;;;99.75;80.75;;;;;;;;5011658;28;51442;-47
2022/01/25 17:57:05;;;;;;;;;83.75;77.25;;;;;;;;4999999;28;51158;-47
2022/01/25 17:59:50;;;;;;;;;77.50;70.50;;;;;;;;5017335;28;51167;-45
2022/01/25 18:02:34;;;;;;;;;89.25;77.75;;;;;;;;5016121;28;51201;-46
2022/01/25 18:05:18;;;;;;;;;88.00;78.50;;;;;;;;5017329;28;51087;-45
2022/01/25 18:08:03;;;;;;;;;87.75;75.50;;;;;;;;5018506;28;51213;-47
2022/01/25 18:10:47;;;;;;;;;79.50;72.50;;;;;;;;5019521;28;51336;-47
2022/01/25 18:13:32;;;;;;;;;83.75;75.50;;;;;;;;5012062;28;51466;-46
2022/01/25 18:16:17;;;;;;;;;89.50;81.00;;;;;;;;5021447;28;52326;-44
2022/01/25 18:19:02;;;;;;;;;88.00;75.00;;;;;;;;5021196;28;51581;-42
2022/01/25 18:21:48;;;;;;;;;102.50;89.25;;;;;;;;5018392;28;51494;-42